ADDS METAR Data INFO
IDs: Format: Raw Decoded Include TAF

Data at: 1750 UTC 21 Oct 2017

KTEX 211615Z AUTO 27010KT 10SM CLR 00/M10 A3016 RMK AO2 T10021097
KTEX 211555Z AUTO 27006KT 10SM CLR 00/M10 A3015 RMK AO2 T10011097
KTEX 211535Z AUTO 26004KT 10SM CLR 00/M09 A3014 RMK AO2 T10031090
KTEX 211515Z AUTO 23004KT 10SM CLR M01/M09 A3014 RMK AO2 T10101087
KTEX 211055Z AUTO 26006KT 10SM BKN050 BKN060 00/M02 A3004 RMK AO2 T00001019
KTEX 211035Z AUTO 27004KT 10SM BKN050 00/M04 A3004 RMK AO2 T00031036
KTEX 211015Z AUTO 28003KT 10SM SCT047 SCT055 00/M03 A3003 RMK AO2 T00041035
KTEX 210955Z AUTO 28005KT 10SM BKN047 BKN055 BKN070 01/M03 A3003 RMK AO2 T00071035
KTEX 210935Z AUTO 25005KT 10SM SCT041 SCT049 BKN060 01/M02 A3003 RMK AO2 T00051017
KTEX 210915Z AUTO 27005KT 10SM SCT034 BKN043 OVC070 01/M01 A3003 RMK AO2 T00071014
KTEX 210855Z AUTO 26005KT 10SM BKN027 OVC035 01/M01 A3003 RMK AO2 60001 T00061015
KTEX 210835Z AUTO 27010KT 4SM -SN BKN025 BKN045 OVC060 01/M01 A3003 RMK AO2 T00061009
KTEX 210815Z AUTO 28006KT 5SM -SN SCT012 BKN021 OVC060 01/00 A3003 RMK AO2 T00121005
KTEX 210755Z AUTO 28010G18KT 2 1/2SM -SN SCT012 OVC021 02/00 A3001 RMK AO2 P0001 T00150000
KTEX 210735Z AUTO 31007KT 10SM BKN021 OVC028 03/01 A3001 RMK AO2 P0001 T00290007
KTEX 210715Z AUTO 22004KT 10SM BKN027 OVC032 03/02 A3000 RMK AO2 LTG DSNT N T00320017
KTEX 210655Z AUTO 00000KT 10SM BKN035 OVC041 03/02 A2999 RMK AO2 T00270024
KTEX 210635Z AUTO 00000KT 10SM SCT034 BKN041 OVC065 03/02 A2999 RMK AO2 T00280020
KTEX 210615Z AUTO 00000KT 10SM SCT013 BKN042 OVC050 03/02 A2997 RMK AO2 T00250020
KTEX 210555Z AUTO 28004KT 2 1/2SM -SN SCT006 BKN013 OVC027 02/02 A2998 RMK AO2 VIS 1V5 P0006 6//// T00180015
KTEX 210535Z AUTO 28005KT 5SM -RA BKN013 OVC025 03/02 A2996 RMK AO2 P0003 T00260021
KTEX 210515Z AUTO 00000KT 5SM UP SCT005 OVC011 02/02 A2995 RMK AO2 P0002 T00230019
KTEX 210455Z AUTO 29010G14KT 260V320 5SM -RA BKN009 OVC015 03/02 A2996 RMK AO2 LTG DSNT E P0003 T00260020
KTEX 210435Z AUTO 29014G30KT 3SM RA BKN009 BKN020 OVC065 04/02 A2995 RMK AO2 LTG DSNT N P0001 T00360018
KTEX 210355Z AUTO 16012G24KT 10SM SCT045 BKN075 OVC120 08/M01 A2988 RMK AO2 T00781006
KTEX 210255Z AUTO 24014G27KT 210V300 10SM SCT042 SCT060 OVC075 11/M05 A2988 RMK AO2 6//// T01091050
KTEX 210215Z AUTO 22013G27KT 10SM SCT055 BKN075 OVC100 12/M06 A2988 RMK AO2 T01201061
KTEX 210135Z AUTO 21007G19KT 10SM BKN070 OVC090 12/M05 A2989 RMK AO2 T01181050
KTEX 210115Z AUTO 23006G17KT 10SM BKN080 BKN110 12/M05 A2988 RMK AO2 T01181050
KTEX 210035Z AUTO 19009G21KT 10SM SCT080 SCT090 12/M05 A2989 RMK AO2 T01191053
KTEX 210015Z AUTO 18010G23KT 10SM SCT080 SCT090 12/M05 A2990 RMK AO2 T01201054
KTEX 202355Z AUTO 21011G22KT 10SM BKN080 12/M06 A2990 RMK AO2 T01241056 10144 20122
KTEX 202335Z AUTO 20013G22KT 150V240 10SM BKN090 12/M05 A2991 RMK AO2 T01231054
KTEX 202315Z AUTO 18010G19KT 130V240 10SM CLR 12/M05 A2992 RMK AO2 T01231053
KTEX 202235Z AUTO 21010G22KT 10SM SCT095 13/M06 A2991 RMK AO2 T01311056
KTEX 202215Z AUTO 18013G24KT 10SM SCT095 14/M06 A2992 RMK AO2 T01351057
KTEX 202155Z AUTO 17018G27KT 10SM CLR 13/M06 A2992 RMK AO2 T01331061
KTEX 202135Z AUTO 18009G21KT 160V220 10SM CLR 14/M06 A2993 RMK AO2 T01351061
KTEX 202115Z AUTO 14013G21KT 10SM SCT090 14/M06 A2994 RMK AO2 T01351057
KTEX 202055Z AUTO 15011G19KT 10SM BKN080 14/M05 A2994 RMK AO2 T01371055
KTEX 202035Z AUTO 17005G21KT 10SM BKN090 14/M05 A2996 RMK AO2 T01351055
KTEX 202015Z AUTO 09003G21KT 10SM BKN080 13/M05 A2997 RMK AO2 T01321052
KTEX 201955Z AUTO 15005G22KT 10SM SCT080 SCT090 14/M06 A2997 RMK AO2 T01361056
KTEX 201935Z AUTO A2999 RMK AO2 PWINO
KTEX 201915Z AUTO 26012G22KT 10SM 14/M06 A3000 RMK AO2 T01381062
KTEX 201855Z AUTO 26012G20KT 190V280 10SM SCT080 14/M05 A3001 RMK AO2 T01421049
KTEX 201835Z AUTO 17008KT A3001 RMK AO2 PWINO
KTEX 201655Z AUTO 15016G25KT 10SM CLR 12/M03 A3001 RMK AO2 6//// T01151026
KTEX 201635Z AUTO 15019G27KT 10SM CLR 11/M02 A3002 RMK AO2 T01121022
KTEX 201615Z AUTO 14017G23KT 10SM CLR 12/M02 A3003 RMK AO2 T01151024
KTEX 201555Z AUTO 17017G27KT 10SM CLR 11/M02 A3005 RMK AO2 T01101025
KTEX 201535Z AUTO 15017G23KT 130V190 10SM CLR 11/M02 A3005 RMK AO2 T01071023
KTEX 201455Z AUTO 14014G22KT 10SM CLR 10/M01 A3006 RMK AO2 T01001011
KTEX 201435Z AUTO 14018KT 10SM CLR 10/M01 A3005 RMK AO2 T00971009
KTEX 201415Z AUTO 15014G20KT 10SM CLR 10/M01 A3005 RMK AO2 T00951006
KTEX 201355Z AUTO 15009G15KT 110V170 10SM CLR 09/M01 A3006 RMK AO2 T00901006
KTEX 201335Z AUTO 13004G17KT 10SM CLR 09/00 A3006 RMK AO2 T00901002
KTEX 201315Z AUTO 16011G15KT 10SM CLR 09/00 A3006 RMK AO2 T00880000
KTEX 201255Z AUTO 12005KT 10SM CLR 09/00 A3007 RMK AO2 T00850000
KTEX 201235Z AUTO 13004KT 10SM SCT060 09/00 A3007 RMK AO2 T00880001
KTEX 201215Z AUTO 12003KT 10SM SCT060 08/00 A3008 RMK AO2 T00840000
KTEX 201155Z AUTO 08004KT 10SM SCT070 08/00 A3008 RMK AO2 6//// 7//// T00790000
KTEX 201135Z AUTO 00000KT 10SM SCT070 A3009 RMK AO2
KTEX 201115Z AUTO 00000KT 10SM SCT055 SCT075 SCT085 09/01 A3010 RMK AO2 T00860006
KTEX 201055Z AUTO 11005KT 10SM SCT055 SCT120 09/01 A3010 RMK AO2 T00850008
KTEX 201015Z AUTO 13006KT 10SM SCT065 BKN110 09/01 A3011 RMK AO2 T00850007
KTEX 200955Z AUTO 13005KT 10SM CLR 09/01 A3012 RMK AO2 T00870007
KTEX 200935Z AUTO 12004KT 10SM SCT050 09/01 A3012 RMK AO2 T00880007
KTEX 200915Z AUTO 00000KT 10SM SCT055 08/01 A3014 RMK AO2 T00820007
KTEX 200855Z AUTO 14004KT 10SM SCT060 09/01 A3014 RMK AO2 6//// T00890007
KTEX 200835Z AUTO 12006KT 10SM CLR 08/01 A3014 RMK AO2 T00840005
KTEX 200815Z AUTO 00000KT 10SM CLR 08/00 A3016 RMK AO2 T00830002
KTEX 200755Z AUTO 00000KT 10SM SCT100 09/00 A3016 RMK AO2 T00851001
KTEX 200655Z AUTO 00000KT 10SM SCT070 BKN075 BKN085 09/M02 A3017 RMK AO2 T00851021
KTEX 200635Z AUTO 14003KT 10SM SCT060 BKN070 OVC110 09/M02 A3018 RMK AO2 T00851025
KTEX 200615Z AUTO 11004KT 10SM BKN065 BKN100 09/M03 A3018 RMK AO2 T00861026
KTEX 200555Z AUTO 00000KT 10SM OVC070 09/M02 A3019 RMK AO2 T00921025 10140 20086